createdAt,value
2023-03-26T00:01:50.014Z,9.50
2023-03-26T00:04:19.993Z,9.50
2023-03-26T00:06:48.996Z,9.60
2023-03-26T00:09:17.786Z,9.60
2023-03-26T00:11:46.878Z,9.60
2023-03-26T00:14:17.590Z,9.60
2023-03-26T00:16:47.870Z,9.60
2023-03-26T00:19:16.612Z,9.60
2023-03-26T00:21:44.633Z,9.40
2023-03-26T00:24:16.458Z,9.50
2023-03-26T00:26:48.355Z,9.50
2023-03-26T00:29:18.758Z,9.40
2023-03-26T00:31:46.916Z,9.40
2023-03-26T00:34:15.955Z,9.20
2023-03-26T00:36:44.056Z,9.20
2023-03-26T00:39:12.132Z,9.10
2023-03-26T00:41:43.156Z,9.00
2023-03-26T00:44:12.074Z,9.00
2023-03-26T00:46:42.813Z,8.90
2023-03-26T00:49:14.922Z,8.90
2023-03-26T00:51:43.355Z,8.90
2023-03-26T00:54:11.252Z,8.90
2023-03-26T00:56:39.611Z,8.90
2023-03-26T00:59:09.313Z,8.80
2023-03-26T09:54:35.901Z,8.50
2023-03-26T09:57:15.308Z,10.10
2023-03-26T10:00:01.088Z,10.20
2023-03-26T10:02:49.337Z,10.20
2023-03-26T10:05:34.454Z,10.10
2023-03-26T10:08:28.841Z,10.40
2023-03-26T10:11:10.021Z,10.80
2023-03-26T10:13:49.234Z,11.00
2023-03-26T10:16:24.504Z,11.00
2023-03-26T10:19:09.952Z,10.90
2023-03-26T10:21:46.829Z,10.90
2023-03-26T10:24:38.223Z,11.00
2023-03-26T10:27:29.217Z,10.90
2023-03-26T10:30:17.940Z,10.70
2023-03-26T10:32:55.326Z,10.80
2023-03-26T10:35:37.694Z,10.90
2023-03-26T10:38:17.907Z,10.90
2023-03-26T10:40:56.562Z,10.70
2023-03-26T10:43:57.805Z,10.70
2023-03-26T10:46:48.709Z,10.70
2023-03-26T10:49:57.840Z,10.70
2023-03-26T10:52:31.639Z,10.80
2023-03-26T10:55:11.918Z,10.60
2023-03-26T10:57:45.023Z,10.60
2023-03-26T11:00:24.942Z,10.50
2023-03-26T11:03:27.645Z,10.40
2023-03-26T11:06:05.008Z,10.30
2023-03-26T11:08:40.696Z,10.20
2023-03-26T11:11:20.264Z,10.20
2023-03-26T11:13:57.119Z,10.20
2023-03-26T11:16:36.909Z,10.30
2023-03-26T11:19:12.064Z,10.50
2023-03-26T11:21:49.828Z,10.60
2023-03-26T11:24:50.777Z,10.70
2023-03-26T11:27:28.509Z,10.80
2023-03-26T11:30:11.063Z,11.10
2023-03-26T11:32:44.076Z,11.10
2023-03-26T11:35:41.009Z,11.10
2023-03-26T11:38:17.554Z,11.30
2023-03-26T11:40:51.016Z,11.50
2023-03-26T11:43:23.240Z,11.50
2023-03-26T11:45:53.949Z,11.60
2023-03-26T11:48:29.899Z,11.60
2023-03-26T11:51:04.372Z,11.50
2023-03-26T11:53:39.102Z,11.30
2023-03-26T11:56:15.156Z,11.30
2023-03-26T11:58:48.712Z,11.30
2023-03-26T12:01:19.828Z,11.50
2023-03-26T12:03:59.864Z,11.60
2023-03-26T12:06:29.177Z,11.60
2023-03-26T12:08:58.011Z,11.70
2023-03-26T12:11:28.936Z,11.80
2023-03-26T12:14:00.669Z,12.00
2023-03-26T12:16:29.282Z,12.00
2023-03-26T12:19:05.416Z,12.30
2023-03-26T12:21:45.675Z,12.50
2023-03-26T12:24:29.389Z,12.90
2023-03-26T12:27:03.132Z,13.20
2023-03-26T12:29:34.636Z,13.30
2023-03-26T12:32:14.381Z,13.30
2023-03-26T12:34:43.788Z,13.40
2023-03-26T12:37:35.444Z,13.40
2023-03-26T12:40:14.919Z,13.60
2023-03-26T12:44:55.187Z,13.40
2023-03-26T12:45:44.340Z,13.30
2023-03-26T12:48:15.702Z,13.50
2023-03-26T12:50:59.222Z,13.60
2023-03-26T12:53:40.050Z,13.40
2023-03-26T12:56:17.431Z,13.40
2023-03-26T12:59:00.478Z,13.20
2023-03-26T13:01:38.485Z,12.90
2023-03-26T13:04:26.772Z,12.90
2023-03-26T13:07:02.700Z,13.00
2023-03-26T13:09:41.303Z,13.10
2023-03-26T13:12:21.034Z,13.00
2023-03-26T13:15:18.959Z,13.00
2023-03-26T13:18:02.355Z,12.90
2023-03-26T13:20:41.985Z,12.90
2023-03-26T13:23:23.780Z,12.90
2023-03-26T13:26:00.126Z,12.90
2023-03-26T13:28:36.167Z,12.80
2023-03-26T13:31:11.717Z,12.90
2023-03-26T13:33:47.000Z,12.90
2023-03-26T13:36:23.695Z,13.00
2023-03-26T13:39:10.008Z,12.70
2023-03-26T13:41:52.705Z,12.70
2023-03-26T13:44:31.641Z,12.70
2023-03-26T13:47:04.881Z,12.70
2023-03-26T13:49:38.587Z,12.60
2023-03-26T13:52:11.284Z,12.70
2023-03-26T13:54:45.473Z,12.60
2023-03-26T13:57:20.171Z,12.50
2023-03-26T13:59:53.051Z,12.70
2023-03-26T14:02:29.906Z,12.70
2023-03-26T14:05:04.562Z,12.60
2023-03-26T14:07:39.103Z,12.80
2023-03-26T14:10:13.322Z,12.80
2023-03-26T14:12:49.331Z,12.60
2023-03-26T14:15:22.825Z,12.30
2023-03-26T14:17:56.653Z,11.60
2023-03-26T14:20:51.743Z,11.20
2023-03-26T14:23:56.168Z,11.00
2023-03-26T14:26:47.253Z,10.80
2023-03-26T14:29:56.389Z,10.90
2023-03-26T14:32:53.706Z,10.60
2023-03-26T14:35:33.626Z,10.60
2023-03-26T14:38:33.950Z,10.70
2023-03-26T14:41:13.955Z,10.70
2023-03-26T14:44:23.220Z,10.70
2023-03-26T14:47:04.464Z,10.80
2023-03-26T14:49:53.828Z,10.80
2023-03-26T14:52:29.477Z,10.90
2023-03-26T14:55:02.572Z,11.00
2023-03-26T14:58:03.767Z,11.10
2023-03-26T15:01:19.801Z,11.20
2023-03-26T15:04:43.699Z,11.10
2023-03-26T15:07:41.113Z,11.10
2023-03-26T15:10:53.426Z,11.00
2023-03-26T15:13:49.261Z,11.10
2023-03-26T15:16:56.502Z,11.20
2023-03-26T15:20:06.422Z,11.30
2023-03-26T15:23:17.123Z,11.30
2023-03-26T15:26:25.581Z,11.50
2023-03-26T15:29:17.740Z,11.50
2023-03-26T15:32:30.073Z,11.50
2023-03-26T15:35:39.765Z,11.60
2023-03-26T15:38:40.128Z,11.70
2023-03-26T15:41:18.771Z,11.70
2023-03-26T15:44:23.680Z,11.60
2023-03-26T15:47:00.734Z,11.70
2023-03-26T15:49:39.676Z,11.70
2023-03-26T15:52:20.947Z,11.60
2023-03-26T15:54:55.917Z,11.60
2023-03-26T15:57:30.671Z,11.40
2023-03-26T16:00:22.590Z,11.40
2023-03-26T16:03:16.102Z,11.20
2023-03-26T16:05:59.978Z,11.00
2023-03-26T16:08:38.829Z,10.90
2023-03-26T16:11:12.499Z,10.80
2023-03-26T16:13:42.956Z,10.80
2023-03-26T16:16:51.550Z,10.80
2023-03-26T16:20:06.499Z,10.80
2023-03-26T16:22:43.953Z,10.80
2023-03-26T16:25:30.433Z,10.70
2023-03-26T16:28:28.613Z,10.70
2023-03-26T16:31:37.116Z,10.70
2023-03-26T16:34:28.939Z,10.70
2023-03-26T16:36:59.472Z,10.70
2023-03-26T16:39:41.012Z,10.60
2023-03-26T16:42:33.030Z,10.60
2023-03-26T16:45:15.958Z,10.60
2023-03-26T16:47:55.042Z,10.50
2023-03-26T16:50:33.466Z,10.50
2023-03-26T16:53:17.158Z,10.50
2023-03-26T16:55:53.845Z,10.50
2023-03-26T16:58:31.685Z,10.40
2023-03-26T17:01:09.025Z,10.40
2023-03-26T17:03:57.266Z,10.40
2023-03-26T17:06:37.539Z,10.40
2023-03-26T17:09:19.034Z,10.40
2023-03-26T17:11:57.617Z,10.30
2023-03-26T17:14:48.967Z,10.20
2023-03-26T17:17:53.172Z,10.20
2023-03-26T17:20:33.160Z,10.10
2023-03-26T17:23:23.705Z,10.00
2023-03-26T17:26:01.960Z,10.00
2023-03-26T17:28:43.522Z,10.00
2023-03-26T17:31:21.326Z,10.00
2023-03-26T17:33:50.001Z,10.00
2023-03-26T17:36:32.571Z,10.00
2023-03-26T17:39:22.398Z,10.00
2023-03-26T17:41:54.435Z,9.90
2023-03-26T17:44:42.909Z,9.90
2023-03-26T17:47:23.376Z,9.90
2023-03-26T17:49:54.738Z,9.90
2023-03-26T17:52:30.967Z,9.90
2023-03-26T17:55:01.975Z,10.00
2023-03-26T17:57:42.021Z,10.00
2023-03-26T18:00:18.214Z,10.00
2023-03-26T18:02:51.149Z,9.80
2023-03-26T18:05:19.391Z,9.80
2023-03-26T18:08:30.686Z,9.60
2023-03-26T18:11:22.332Z,9.50
2023-03-26T18:14:32.404Z,9.40
2023-03-26T18:17:02.373Z,9.30
2023-03-26T18:19:32.016Z,9.20
2023-03-26T18:22:04.697Z,9.10
2023-03-26T18:24:38.552Z,9.00
2023-03-26T18:27:12.163Z,9.00
2023-03-26T18:29:44.667Z,8.90
2023-03-26T18:32:22.845Z,8.90
2023-03-26T18:34:52.716Z,8.80
2023-03-26T18:37:24.210Z,8.80
2023-03-26T18:40:02.395Z,8.60
2023-03-26T18:42:32.611Z,8.50
2023-03-26T18:45:05.319Z,8.50
2023-03-26T18:47:33.786Z,8.40
2023-03-26T18:50:01.869Z,8.20
2023-03-26T18:52:32.482Z,8.10
2023-03-26T18:55:04.443Z,8.10
2023-03-26T18:57:32.555Z,8.10
2023-03-26T19:00:18.542Z,8.10
2023-03-26T19:02:49.929Z,8.00
2023-03-26T19:05:19.653Z,7.90
2023-03-26T19:07:48.903Z,8.00
2023-03-26T19:10:22.195Z,7.90
2023-03-26T19:12:57.699Z,7.80
2023-03-26T19:15:28.094Z,7.80
2023-03-26T19:18:03.886Z,7.80
2023-03-26T19:20:41.481Z,7.80
2023-03-26T19:23:14.265Z,7.80
2023-03-26T19:25:47.681Z,7.70
2023-03-26T19:28:21.831Z,7.70
2023-03-26T19:30:55.629Z,7.80
2023-03-26T19:33:24.649Z,7.70
2023-03-26T19:36:01.371Z,7.70
2023-03-26T19:38:37.859Z,7.70
2023-03-26T19:41:07.426Z,7.70
2023-03-26T19:43:35.656Z,7.70
2023-03-26T19:46:03.580Z,7.60
2023-03-26T19:48:46.132Z,7.70
2023-03-26T19:51:21.042Z,7.80
2023-03-26T19:53:53.322Z,7.80
2023-03-26T19:56:23.426Z,7.70
2023-03-26T19:58:51.536Z,7.80
2023-03-26T20:01:21.551Z,7.80
2023-03-26T20:03:51.714Z,7.90
2023-03-26T20:06:27.863Z,8.00
2023-03-26T20:09:02.596Z,8.00
2023-03-26T20:11:36.540Z,7.90
2023-03-26T20:14:12.006Z,8.00
2023-03-26T20:16:41.659Z,8.00
2023-03-26T20:19:11.077Z,7.90
2023-03-26T20:21:40.388Z,7.90
2023-03-26T20:24:14.532Z,7.80
2023-03-26T20:26:44.359Z,7.80
2023-03-26T20:29:12.861Z,7.80
2023-03-26T20:31:42.378Z,7.90
2023-03-26T20:34:17.467Z,7.80
2023-03-26T20:36:46.484Z,7.80
2023-03-26T20:39:15.235Z,7.80
2023-03-26T20:41:46.662Z,7.80
2023-03-26T20:44:17.332Z,7.80
2023-03-26T20:46:46.595Z,7.80
2023-03-26T20:49:15.812Z,7.70
2023-03-26T20:51:45.257Z,7.70
2023-03-26T20:54:17.524Z,7.60
2023-03-26T20:56:48.077Z,7.70
2023-03-26T20:59:21.976Z,7.60
2023-03-26T21:01:51.146Z,7.70
2023-03-26T21:04:20.350Z,7.70
2023-03-26T21:06:48.863Z,7.80
2023-03-26T21:09:24.221Z,7.80
2023-03-26T21:12:01.427Z,8.00
2023-03-26T21:14:34.014Z,7.90
2023-03-26T21:17:02.681Z,7.90
2023-03-26T21:19:31.155Z,7.90
2023-03-26T21:22:09.413Z,7.80
2023-03-26T21:24:58.298Z,7.80
2023-03-26T21:27:33.786Z,7.90
2023-03-26T21:30:02.434Z,7.90
2023-03-26T21:32:31.791Z,7.80
2023-03-26T21:35:00.492Z,7.90
2023-03-26T21:37:29.114Z,7.80
2023-03-26T21:39:57.659Z,7.80
2023-03-26T21:42:29.234Z,7.80
2023-03-26T21:44:57.636Z,7.70
2023-03-26T21:47:26.303Z,7.80
2023-03-26T21:49:54.819Z,7.70
2023-03-26T21:52:23.998Z,7.70
2023-03-26T21:54:52.815Z,7.70
2023-03-26T21:57:42.748Z,7.70
2023-03-26T22:00:15.508Z,7.70
2023-03-26T22:02:58.533Z,7.70
2023-03-26T22:05:36.215Z,7.60
2023-03-26T22:08:07.099Z,7.50
2023-03-26T22:10:35.000Z,7.60
2023-03-26T22:13:04.566Z,7.70
2023-03-26T22:15:34.082Z,7.70
2023-03-26T22:18:03.177Z,7.60
2023-03-26T22:20:31.422Z,7.60
2023-03-26T22:23:01.271Z,7.50
2023-03-26T22:25:29.230Z,7.40
2023-03-26T22:27:57.879Z,7.50
2023-03-26T22:30:27.320Z,7.50
2023-03-26T22:32:55.654Z,7.40
2023-03-26T22:35:23.857Z,7.40
2023-03-26T22:37:51.946Z,7.40
2023-03-26T22:40:28.461Z,7.40
2023-03-26T22:42:56.710Z,7.40
2023-03-26T22:45:26.225Z,7.30
2023-03-26T22:48:03.483Z,7.50
2023-03-26T22:50:32.960Z,7.40
2023-03-26T22:53:00.958Z,7.40
2023-03-26T22:55:30.040Z,7.40
2023-03-26T22:57:58.314Z,7.30
2023-03-26T23:00:28.100Z,7.30
2023-03-26T23:03:00.347Z,7.30
2023-03-26T23:05:28.633Z,7.30
2023-03-26T23:07:57.116Z,7.30
2023-03-26T23:10:25.193Z,7.40
2023-03-26T23:12:53.856Z,7.40
2023-03-26T23:15:22.595Z,7.40
2023-03-26T23:17:54.064Z,7.50
2023-03-26T23:20:23.130Z,7.50
2023-03-26T23:22:51.471Z,7.40
2023-03-26T23:25:20.098Z,7.40
2023-03-26T23:27:48.321Z,7.30
2023-03-26T23:30:16.805Z,7.30
2023-03-26T23:32:45.262Z,7.30
2023-03-26T23:35:14.864Z,7.20
2023-03-26T23:37:43.156Z,7.20
2023-03-26T23:40:13.939Z,7.20
